sensor_id;sensor_type;location;lat;lon;timestamp;pressure;altitude;pressure_sealevel;temperature;humidity
74075;BME280;62428;51.412;5.432;2022-10-16T00:01:16;100891.91;;;12.26;87.59
74075;BME280;62428;51.412;5.432;2022-10-16T00:03:43;100892.22;;;12.25;87.76
74075;BME280;62428;51.412;5.432;2022-10-16T00:06:10;100894.41;;;12.23;88.05
74075;BME280;62428;51.412;5.432;2022-10-16T00:08:36;100896.81;;;12.24;87.93
74075;BME280;62428;51.412;5.432;2022-10-16T00:11:05;100890.91;;;12.22;87.97
74075;BME280;62428;51.412;5.432;2022-10-16T00:13:32;100885.53;;;12.22;87.94
74075;BME280;62428;51.412;5.432;2022-10-16T00:15:58;100888.22;;;12.22;87.71
74075;BME280;62428;51.412;5.432;2022-10-16T00:18:24;100896.31;;;12.22;87.93
74075;BME280;62428;51.412;5.432;2022-10-16T00:20:49;100893.13;;;12.20;87.85
74075;BME280;62428;51.412;5.432;2022-10-16T00:23:15;100899.59;;;12.19;87.95
74075;BME280;62428;51.412;5.432;2022-10-16T00:25:40;100885.03;;;12.20;88.17
74075;BME280;62428;51.412;5.432;2022-10-16T00:28:06;100881.84;;;12.18;88.18
74075;BME280;62428;51.412;5.432;2022-10-16T00:30:31;100887.53;;;12.17;87.96
74075;BME280;62428;51.412;5.432;2022-10-16T00:32:56;100887.84;;;12.15;87.76
74075;BME280;62428;51.412;5.432;2022-10-16T00:35:22;100881.66;;;12.15;88.14
74075;BME280;62428;51.412;5.432;2022-10-16T00:37:47;100887.03;;;12.15;87.81
74075;BME280;62428;51.412;5.432;2022-10-16T00:40:13;100900.81;;;12.13;87.89
74075;BME280;62428;51.412;5.432;2022-10-16T00:42:38;100903.78;;;12.11;87.71
74075;BME280;62428;51.412;5.432;2022-10-16T00:45:04;100905.50;;;12.07;87.67
74075;BME280;62428;51.412;5.432;2022-10-16T00:47:33;100909.59;;;12.05;87.50
74075;BME280;62428;51.412;5.432;2022-10-16T00:50:30;100903.69;;;12.03;87.34
74075;BME280;62428;51.412;5.432;2022-10-16T00:52:57;100915.06;;;12.00;87.58
74075;BME280;62428;51.412;5.432;2022-10-16T00:55:24;100911.41;;;11.96;87.73
74075;BME280;62428;51.412;5.432;2022-10-16T00:57:51;100908.69;;;11.96;87.39
74075;BME280;62428;51.412;5.432;2022-10-16T01:00:21;100904.69;;;11.93;87.70
74075;BME280;62428;51.412;5.432;2022-10-16T01:02:57;100902.59;;;11.90;87.77
74075;BME280;62428;51.412;5.432;2022-10-16T01:05:30;100906.94;;;11.86;87.51
74075;BME280;62428;51.412;5.432;2022-10-16T01:08:08;100902.97;;;11.83;87.82
74075;BME280;62428;51.412;5.432;2022-10-16T01:10:38;100888.72;;;11.83;87.78
74075;BME280;62428;51.412;5.432;2022-10-16T01:13:07;100896.28;;;11.81;87.68
74075;BME280;62428;51.412;5.432;2022-10-16T01:15:39;100890.41;;;11.79;88.00
74075;BME280;62428;51.412;5.432;2022-10-16T01:18:23;100892.00;;;11.80;87.78
74075;BME280;62428;51.412;5.432;2022-10-16T01:21:13;100888.31;;;11.76;87.92
74075;BME280;62428;51.412;5.432;2022-10-16T01:26:35;100903.16;;;11.73;88.00
74075;BME280;62428;51.412;5.432;2022-10-16T01:29:56;100903.66;;;11.75;87.71
74075;BME280;62428;51.412;5.432;2022-10-16T01:32:35;100906.13;;;11.71;88.12
74075;BME280;62428;51.412;5.432;2022-10-16T01:35:05;100911.03;;;11.69;87.74
74075;BME280;62428;51.412;5.432;2022-10-16T01:40:06;100910.31;;;11.64;87.72
74075;BME280;62428;51.412;5.432;2022-10-16T01:42:39;100907.91;;;11.62;87.76
74075;BME280;62428;51.412;5.432;2022-10-16T01:45:06;100909.31;;;11.60;87.83
74075;BME280;62428;51.412;5.432;2022-10-16T01:47:34;100902.03;;;11.60;88.20
74075;BME280;62428;51.412;5.432;2022-10-16T01:50:02;100903.16;;;11.59;88.24
74075;BME280;62428;51.412;5.432;2022-10-16T01:52:32;100902.34;;;11.59;88.46
74075;BME280;62428;51.412;5.432;2022-10-16T01:55:01;100899.34;;;11.60;88.61
74075;BME280;62428;51.412;5.432;2022-10-16T01:57:29;100903.66;;;11.61;88.54
74075;BME280;62428;51.412;5.432;2022-10-16T01:59:58;100907.91;;;11.62;88.51
74075;BME280;62428;51.412;5.432;2022-10-16T02:02:26;100909.53;;;11.63;88.44
74075;BME280;62428;51.412;5.432;2022-10-16T02:04:58;100909.25;;;11.65;88.72
74075;BME280;62428;51.412;5.432;2022-10-16T02:07:24;100904.94;;;11.64;88.91
74075;BME280;62428;51.412;5.432;2022-10-16T02:09:50;100913.50;;;11.66;89.06
74075;BME280;62428;51.412;5.432;2022-10-16T02:12:19;100916.50;;;11.64;88.79
74075;BME280;62428;51.412;5.432;2022-10-16T02:14:46;100905.53;;;11.61;88.79
74075;BME280;62428;51.412;5.432;2022-10-16T02:17:14;100906.63;;;11.60;88.67
74075;BME280;62428;51.412;5.432;2022-10-16T02:19:40;100900.75;;;11.58;88.73
74075;BME280;62428;51.412;5.432;2022-10-16T02:22:09;100906.94;;;11.58;88.81
74075;BME280;62428;51.412;5.432;2022-10-16T02:24:51;100901.25;;;11.60;89.50
74075;BME280;62428;51.412;5.432;2022-10-16T02:27:40;100901.25;;;11.60;88.81
74075;BME280;62428;51.412;5.432;2022-10-16T02:30:11;100902.34;;;11.59;89.18
74075;BME280;62428;51.412;5.432;2022-10-16T02:32:41;100896.94;;;11.59;89.30
74075;BME280;62428;51.412;5.432;2022-10-16T02:35:08;100905.03;;;11.59;88.59
74075;BME280;62428;51.412;5.432;2022-10-16T02:37:34;100910.69;;;11.57;88.54
74075;BME280;62428;51.412;5.432;2022-10-16T02:40:01;100912.88;;;11.55;88.59
74075;BME280;62428;51.412;5.432;2022-10-16T02:42:35;100912.88;;;11.55;89.23
74075;BME280;62428;51.412;5.432;2022-10-16T02:45:02;100910.19;;;11.55;89.27
74075;BME280;62428;51.412;5.432;2022-10-16T02:47:28;100907.50;;;11.55;89.35
74075;BME280;62428;51.412;5.432;2022-10-16T02:49:54;100903.53;;;11.52;88.90
74075;BME280;62428;51.412;5.432;2022-10-16T02:52:19;100914.28;;;11.52;88.86
74075;BME280;62428;51.412;5.432;2022-10-16T02:54:44;100907.31;;;11.51;88.95
74075;BME280;62428;51.412;5.432;2022-10-16T02:57:10;100903.31;;;11.49;88.77
74075;BME280;62428;51.412;5.432;2022-10-16T02:59:35;100908.41;;;11.50;88.76
74075;BME280;62428;51.412;5.432;2022-10-16T03:02:01;100908.19;;;11.47;88.53
74075;BME280;62428;51.412;5.432;2022-10-16T03:04:26;100915.78;;;11.45;88.40
74075;BME280;62428;51.412;5.432;2022-10-16T03:06:51;100919.53;;;11.44;88.32
74075;BME280;62428;51.412;5.432;2022-10-16T03:09:16;100922.53;;;11.42;88.61
74075;BME280;62428;51.412;5.432;2022-10-16T03:11:42;100924.13;;;11.43;89.03
74075;BME280;62428;51.412;5.432;2022-10-16T03:14:07;100919.34;;;11.40;88.75
74075;BME280;62428;51.412;5.432;2022-10-16T03:16:32;100922.31;;;11.39;88.49
74075;BME280;62428;51.412;5.432;2022-10-16T03:18:58;100933.06;;;11.39;89.08
74075;BME280;62428;51.412;5.432;2022-10-16T03:21:23;100933.38;;;11.37;88.88
74075;BME280;62428;51.412;5.432;2022-10-16T03:23:48;100937.66;;;11.38;88.95
74075;BME280;62428;51.412;5.432;2022-10-16T03:26:14;100934.47;;;11.36;88.86
74075;BME280;62428;51.412;5.432;2022-10-16T03:28:39;100939.06;;;11.35;89.48
74075;BME280;62428;51.412;5.432;2022-10-16T03:31:04;100946.31;;;11.35;89.25
74075;BME280;62428;51.412;5.432;2022-10-16T03:33:30;100940.13;;;11.34;89.53
74075;BME280;62428;51.412;5.432;2022-10-16T03:35:55;100931.00;;;11.35;89.54
74075;BME280;62428;51.412;5.432;2022-10-16T03:38:21;100931.00;;;11.35;89.81
74075;BME280;62428;51.412;5.432;2022-10-16T03:40:47;100933.38;;;11.37;89.73
74075;BME280;62428;51.412;5.432;2022-10-16T03:43:12;100943.03;;;11.38;90.24
74075;BME280;62428;51.412;5.432;2022-10-16T03:45:37;100958.09;;;11.39;90.29
74075;BME280;62428;51.412;5.432;2022-10-16T03:48:03;100955.09;;;11.41;90.39
74075;BME280;62428;51.412;5.432;2022-10-16T03:50:29;100948.63;;;11.42;90.33
74075;BME280;62428;51.412;5.432;2022-10-16T03:52:54;100957.50;;;11.42;90.42
74075;BME280;62428;51.412;5.432;2022-10-16T03:55:19;100966.06;;;11.44;90.41
74075;BME280;62428;51.412;5.432;2022-10-16T03:57:45;100955.03;;;11.46;90.71
74075;BME280;62428;51.412;5.432;2022-10-16T04:00:11;100957.41;;;11.47;90.47
74075;BME280;62428;51.412;5.432;2022-10-16T04:02:36;100959.03;;;11.48;90.24
74075;BME280;62428;51.412;5.432;2022-10-16T04:05:01;100952.53;;;11.49;90.19
74075;BME280;62428;51.412;5.432;2022-10-16T04:07:27;100952.53;;;11.49;90.31
74075;BME280;62428;51.412;5.432;2022-10-16T04:09:52;100956.06;;;11.50;90.48
74075;BME280;62428;51.412;5.432;2022-10-16T04:12:18;100967.31;;;11.52;90.37
74075;BME280;62428;51.412;5.432;2022-10-16T04:14:43;100958.41;;;11.51;90.61
74075;BME280;62428;51.412;5.432;2022-10-16T04:17:09;100965.41;;;11.52;90.52
74075;BME280;62428;51.412;5.432;2022-10-16T04:19:34;100965.91;;;11.54;90.45
74075;BME280;62428;51.412;5.432;2022-10-16T04:21:59;100968.59;;;11.54;90.42
74075;BME280;62428;51.412;5.432;2022-10-16T04:24:25;100972.38;;;11.53;90.58
74075;BME280;62428;51.412;5.432;2022-10-16T04:26:50;100968.09;;;11.52;90.41
74075;BME280;62428;51.412;5.432;2022-10-16T04:29:15;100960.03;;;11.52;90.50
74075;BME280;62428;51.412;5.432;2022-10-16T04:31:41;100957.34;;;11.52;90.52
74075;BME280;62428;51.412;5.432;2022-10-16T04:34:06;100970.50;;;11.54;90.78
74075;BME280;62428;51.412;5.432;2022-10-16T04:36:31;100972.09;;;11.55;90.79
74075;BME280;62428;51.412;5.432;2022-10-16T04:38:57;100970.22;;;11.56;90.79
74075;BME280;62428;51.412;5.432;2022-10-16T04:41:22;100972.59;;;11.57;90.95
74075;BME280;62428;51.412;5.432;2022-10-16T04:43:47;100976.38;;;11.56;90.91
74075;BME280;62428;51.412;5.432;2022-10-16T04:46:13;100979.06;;;11.56;90.85
74075;BME280;62428;51.412;5.432;2022-10-16T04:48:38;100989.53;;;11.58;91.00
74075;BME280;62428;51.412;5.432;2022-10-16T04:51:03;100995.72;;;11.58;91.00
74075;BME280;62428;51.412;5.432;2022-10-16T04:53:29;100987.34;;;11.60;90.88
74075;BME280;62428;51.412;5.432;2022-10-16T04:55:54;100995.44;;;11.60;90.86
74075;BME280;62428;51.412;5.432;2022-10-16T04:58:21;100995.44;;;11.60;91.08
74075;BME280;62428;51.412;5.432;2022-10-16T05:00:46;100992.75;;;11.60;90.82
74075;BME280;62428;51.412;5.432;2022-10-16T05:03:12;100997.34;;;11.59;90.90
74075;BME280;62428;51.412;5.432;2022-10-16T05:05:42;100999.69;;;11.61;90.99
74075;BME280;62428;51.412;5.432;2022-10-16T05:08:08;101002.41;;;11.61;91.07
74075;BME280;62428;51.412;5.432;2022-10-16T05:10:33;101008.59;;;11.61;91.09
74075;BME280;62428;51.412;5.432;2022-10-16T05:12:59;101015.84;;;11.61;91.05
74075;BME280;62428;51.412;5.432;2022-10-16T05:15:24;101022.06;;;11.61;90.84
74075;BME280;62428;51.412;5.432;2022-10-16T05:17:52;101029.00;;;11.62;91.12
74075;BME280;62428;51.412;5.432;2022-10-16T05:20:18;101023.63;;;11.62;91.18
74075;BME280;62428;51.412;5.432;2022-10-16T05:22:43;101020.94;;;11.62;91.09
74075;BME280;62428;51.412;5.432;2022-10-16T05:25:08;101029.31;;;11.61;91.15
74075;BME280;62428;51.412;5.432;2022-10-16T05:27:34;101032.81;;;11.61;91.13
74075;BME280;62428;51.412;5.432;2022-10-16T05:29:59;101025.03;;;11.60;91.12
74075;BME280;62428;51.412;5.432;2022-10-16T05:32:24;101026.94;;;11.59;91.08
74075;BME280;62428;51.412;5.432;2022-10-16T05:34:50;101030.69;;;11.58;91.18
74075;BME280;62428;51.412;5.432;2022-10-16T05:37:15;101034.47;;;11.57;91.15
74075;BME280;62428;51.412;5.432;2022-10-16T05:39:41;101041.25;;;11.54;91.22
74075;BME280;62428;51.412;5.432;2022-10-16T05:42:06;101043.16;;;11.54;91.23
74075;BME280;62428;51.412;5.432;2022-10-16T05:44:32;101052.00;;;11.54;91.35
74075;BME280;62428;51.412;5.432;2022-10-16T05:46:57;101059.28;;;11.54;91.15
74075;BME280;62428;51.412;5.432;2022-10-16T05:49:23;101058.47;;;11.53;91.10
74075;BME280;62428;51.412;5.432;2022-10-16T05:51:48;101066.53;;;11.53;91.18
74075;BME280;62428;51.412;5.432;2022-10-16T05:54:13;101066.88;;;11.52;91.10
74075;BME280;62428;51.412;5.432;2022-10-16T05:56:39;101077.41;;;11.48;91.03
74075;BME280;62428;51.412;5.432;2022-10-16T05:59:04;101075.78;;;11.47;91.46
74075;BME280;62428;51.412;5.432;2022-10-16T06:01:30;101075.28;;;11.45;91.34
74075;BME280;62428;51.412;5.432;2022-10-16T06:03:56;101083.66;;;11.44;91.42
74075;BME280;62428;51.412;5.432;2022-10-16T06:06:25;101086.63;;;11.42;91.37
74075;BME280;62428;51.412;5.432;2022-10-16T06:08:52;101094.97;;;11.41;91.55
74075;BME280;62428;51.412;5.432;2022-10-16T06:11:20;101085.63;;;11.38;91.44
74075;BME280;62428;51.412;5.432;2022-10-16T06:13:52;101097.16;;;11.39;91.76
74075;BME280;62428;51.412;5.432;2022-10-16T06:16:18;101093.69;;;11.38;91.61
74075;BME280;62428;51.412;5.432;2022-10-16T06:18:44;101100.13;;;11.37;91.78
74075;BME280;62428;51.412;5.432;2022-10-16T06:21:14;101099.06;;;11.38;91.81
74075;BME280;62428;51.412;5.432;2022-10-16T06:23:41;101105.25;;;11.39;91.87
74075;BME280;62428;51.412;5.432;2022-10-16T06:26:11;101103.38;;;11.39;91.89
74075;BME280;62428;51.412;5.432;2022-10-16T06:28:37;101106.06;;;11.39;92.05
74075;BME280;62428;51.412;5.432;2022-10-16T06:31:03;101115.72;;;11.40;91.76
74075;BME280;62428;51.412;5.432;2022-10-16T06:33:29;101107.63;;;11.40;91.75
74075;BME280;62428;51.412;5.432;2022-10-16T06:36:02;101121.09;;;11.40;91.76
74075;BME280;62428;51.412;5.432;2022-10-16T06:38:28;101128.38;;;11.40;91.65
74075;BME280;62428;51.412;5.432;2022-10-16T06:40:54;101141.81;;;11.40;91.85
74075;BME280;62428;51.412;5.432;2022-10-16T06:43:19;101139.94;;;11.40;91.87
74075;BME280;62428;51.412;5.432;2022-10-16T06:45:55;101145.03;;;11.42;91.88
74075;BME280;62428;51.412;5.432;2022-10-16T06:48:21;101149.31;;;11.43;92.04
74075;BME280;62428;51.412;5.432;2022-10-16T06:51:00;101162.47;;;11.44;91.89
74075;BME280;62428;51.412;5.432;2022-10-16T06:53:27;101162.19;;;11.46;91.89
74075;BME280;62428;51.412;5.432;2022-10-16T06:55:54;101165.38;;;11.48;92.09
74075;BME280;62428;51.412;5.432;2022-10-16T06:58:20;101164.00;;;11.50;92.18
74075;BME280;62428;51.412;5.432;2022-10-16T07:00:45;101168.00;;;11.53;91.98
74075;BME280;62428;51.412;5.432;2022-10-16T07:03:11;101175.50;;;11.56;92.23
74075;BME280;62428;51.412;5.432;2022-10-16T07:05:41;101176.81;;;11.59;92.26
74075;BME280;62428;51.412;5.432;2022-10-16T07:08:06;101185.91;;;11.63;92.07
74075;BME280;62428;51.412;5.432;2022-10-16T07:10:33;101192.31;;;11.67;92.13
74075;BME280;62428;51.412;5.432;2022-10-16T07:13:01;101183.63;;;11.70;92.32
74075;BME280;62428;51.412;5.432;2022-10-16T07:15:27;101198.16;;;11.74;91.79
74075;BME280;62428;51.412;5.432;2022-10-16T07:17:52;101193.78;;;11.78;92.16
74075;BME280;62428;51.412;5.432;2022-10-16T07:20:18;101203.38;;;11.84;91.94
74075;BME280;62428;51.412;5.432;2022-10-16T07:22:44;101207.38;;;11.87;92.08
74075;BME280;62428;51.412;5.432;2022-10-16T07:25:09;101210.84;;;11.92;92.02
74075;BME280;62428;51.412;5.432;2022-10-16T07:27:35;101210.75;;;11.98;91.47
74075;BME280;62428;51.412;5.432;2022-10-16T07:30:00;101217.94;;;12.02;92.04
74075;BME280;62428;51.412;5.432;2022-10-16T07:32:26;101221.38;;;12.08;91.66
74075;BME280;62428;51.412;5.432;2022-10-16T07:34:52;101233.09;;;12.17;91.65
74075;BME280;62428;51.412;5.432;2022-10-16T07:37:18;101231.31;;;12.26;91.13
74075;BME280;62428;51.412;5.432;2022-10-16T07:39:43;101233.28;;;12.40;91.17
74075;BME280;62428;51.412;5.432;2022-10-16T07:42:09;101234.13;;;12.54;90.61
74075;BME280;62428;51.412;5.432;2022-10-16T07:44:34;101243.88;;;12.69;90.42
74075;BME280;62428;51.412;5.432;2022-10-16T07:46:59;101246.56;;;12.83;89.85
74075;BME280;62428;51.412;5.432;2022-10-16T07:49:25;101252.09;;;12.92;89.22
74075;BME280;62428;51.412;5.432;2022-10-16T07:51:50;101254.41;;;12.98;89.03
74075;BME280;62428;51.412;5.432;2022-10-16T07:54:16;101260.22;;;13.05;89.07
74075;BME280;62428;51.412;5.432;2022-10-16T07:56:41;101263.63;;;13.11;88.32
74075;BME280;62428;51.412;5.432;2022-10-16T07:59:06;101271.28;;;13.18;88.59
74075;BME280;62428;51.412;5.432;2022-10-16T08:01:32;101281.41;;;13.26;88.55
74075;BME280;62428;51.412;5.432;2022-10-16T08:03:57;101296.91;;;13.34;87.95
74075;BME280;62428;51.412;5.432;2022-10-16T08:06:22;101285.53;;;13.37;87.29
74075;BME280;62428;51.412;5.432;2022-10-16T08:08:48;101296.25;;;13.42;87.06
74075;BME280;62428;51.412;5.432;2022-10-16T08:11:14;101289.63;;;13.49;87.44
74075;BME280;62428;51.412;5.432;2022-10-16T08:13:40;101294.16;;;13.53;87.19
74075;BME280;62428;51.412;5.432;2022-10-16T08:16:06;101298.63;;;13.58;86.25
74075;BME280;62428;51.412;5.432;2022-10-16T08:18:40;101305.34;;;13.60;86.51
74075;BME280;62428;51.412;5.432;2022-10-16T08:21:07;101309.63;;;13.61;86.42
74075;BME280;62428;51.412;5.432;2022-10-16T08:23:34;101313.16;;;13.62;86.04
74075;BME280;62428;51.412;5.432;2022-10-16T08:26:07;101313.16;;;13.62;86.15
74075;BME280;62428;51.412;5.432;2022-10-16T08:28:32;101311.25;;;13.62;86.49
74075;BME280;62428;51.412;5.432;2022-10-16T08:31:15;101313.94;;;13.62;86.78
74075;BME280;62428;51.412;5.432;2022-10-16T08:33:43;101316.63;;;13.62;86.06
74075;BME280;62428;51.412;5.432;2022-10-16T08:36:10;101315.56;;;13.63;86.21
74075;BME280;62428;51.412;5.432;2022-10-16T08:38:36;101318.25;;;13.63;85.74
74075;BME280;62428;51.412;5.432;2022-10-16T08:44:03;101333.84;;;13.67;87.11
74075;BME280;62428;51.412;5.432;2022-10-16T08:46:47;101337.03;;;13.69;86.29
74075;BME280;62428;51.412;5.432;2022-10-16T08:49:16;101337.22;;;13.72;85.22
74075;BME280;62428;51.412;5.432;2022-10-16T08:51:42;101345.53;;;13.76;85.85
74075;BME280;62428;51.412;5.432;2022-10-16T08:56:36;101356.44;;;13.84;84.71
74075;BME280;62428;51.412;5.432;2022-10-16T08:59:01;101351.22;;;13.88;84.72
74075;BME280;62428;51.412;5.432;2022-10-16T09:01:38;101353.84;;;13.93;84.65
74075;BME280;62428;51.412;5.432;2022-10-16T09:06:54;101347.00;;;14.10;83.12
74075;BME280;62428;51.412;5.432;2022-10-16T09:16:56;101363.84;;;14.43;82.98
74075;BME280;62428;51.412;5.432;2022-10-16T09:19:30;101369.94;;;14.49;81.15
74075;BME280;62428;51.412;5.432;2022-10-16T09:21:59;101370.91;;;14.53;81.00
74075;BME280;62428;51.412;5.432;2022-10-16T09:24:27;101371.66;;;14.58;80.89
74075;BME280;62428;51.412;5.432;2022-10-16T09:26:52;101374.72;;;14.66;81.00
74075;BME280;62428;51.412;5.432;2022-10-16T09:29:19;101381.81;;;14.75;81.11
74075;BME280;62428;51.412;5.432;2022-10-16T09:31:46;101380.28;;;14.83;80.47
74075;BME280;62428;51.412;5.432;2022-10-16T09:34:32;101383.84;;;14.92;81.32
74075;BME280;62428;51.412;5.432;2022-10-16T09:37:03;101383.72;;;14.97;79.02
74075;BME280;62428;51.412;5.432;2022-10-16T09:39:29;101388.53;;;15.01;79.09
74075;BME280;62428;51.412;5.432;2022-10-16T09:41:54;101384.38;;;15.03;79.21
74075;BME280;62428;51.412;5.432;2022-10-16T09:44:24;101386.97;;;15.08;79.10
74075;BME280;62428;51.412;5.432;2022-10-16T09:47:25;101384.63;;;15.15;80.27
74075;BME280;62428;51.412;5.432;2022-10-16T09:49:55;101384.63;;;15.15;78.46
74075;BME280;62428;51.412;5.432;2022-10-16T09:52:23;101383.50;;;15.16;78.73
74075;BME280;62428;51.412;5.432;2022-10-16T09:55:00;101396.56;;;15.14;78.46
74075;BME280;62428;51.412;5.432;2022-10-16T09:57:26;101387.53;;;15.19;77.28
74075;BME280;62428;51.412;5.432;2022-10-16T09:59:53;101380.06;;;15.25;77.14
74075;BME280;62428;51.412;5.432;2022-10-16T10:02:26;101385.66;;;15.28;77.61
74075;BME280;62428;51.412;5.432;2022-10-16T10:04:54;101388.72;;;15.35;77.22
74075;BME280;62428;51.412;5.432;2022-10-16T10:07:42;101379.34;;;15.42;78.61
74075;BME280;62428;51.412;5.432;2022-10-16T10:10:21;101403.59;;;15.47;77.94
74075;BME280;62428;51.412;5.432;2022-10-16T10:12:47;101395.47;;;15.47;76.43
74075;BME280;62428;51.412;5.432;2022-10-16T10:15:13;101401.31;;;15.40;75.80
74075;BME280;62428;51.412;5.432;2022-10-16T10:17:51;101399.56;;;15.35;76.40
74075;BME280;62428;51.412;5.432;2022-10-16T10:22:51;101404.16;;;15.35;76.21
74075;BME280;62428;51.412;5.432;2022-10-16T10:26:01;101403.66;;;15.33;77.65
74075;BME280;62428;51.412;5.432;2022-10-16T10:28:47;101405.09;;;15.30;75.53
74075;BME280;62428;51.412;5.432;2022-10-16T10:31:25;101411.31;;;15.31;76.85
74075;BME280;62428;51.412;5.432;2022-10-16T10:36:53;101418.50;;;15.35;76.94
74075;BME280;62428;51.412;5.432;2022-10-16T10:39:33;101419.31;;;15.36;77.25
74075;BME280;62428;51.412;5.432;2022-10-16T10:42:29;101416.28;;;15.37;77.33
74075;BME280;62428;51.412;5.432;2022-10-16T10:53:11;101432.59;;;15.24;76.17
74075;BME280;62428;51.412;5.432;2022-10-16T11:00:57;101432.53;;;15.15;76.31
74075;BME280;62428;51.412;5.432;2022-10-16T11:06:36;101436.84;;;15.16;75.32
74075;BME280;62428;51.412;5.432;2022-10-16T11:11:51;101437.47;;;15.35;75.32
74075;BME280;62428;51.412;5.432;2022-10-16T11:14:23;101423.66;;;15.46;75.64
74075;BME280;62428;51.412;5.432;2022-10-16T11:16:58;101426.88;;;15.56;73.89
74075;BME280;62428;51.412;5.432;2022-10-16T11:19:41;101425.31;;;15.64;75.58
74075;BME280;62428;51.412;5.432;2022-10-16T11:22:38;101429.03;;;15.68;75.66
74075;BME280;62428;51.412;5.432;2022-10-16T11:28:13;101440.44;;;15.79;72.51
74075;BME280;62428;51.412;5.432;2022-10-16T11:31:05;101448.72;;;15.83;73.05
74075;BME280;62428;51.412;5.432;2022-10-16T11:36:15;101439.94;;;15.77;72.40
74075;BME280;62428;51.412;5.432;2022-10-16T11:38:58;101441.03;;;15.76;73.27
74075;BME280;62428;51.412;5.432;2022-10-16T11:41:48;101445.47;;;15.72;73.57
74075;BME280;62428;51.412;5.432;2022-10-16T11:47:41;101452.97;;;15.75;73.78
74075;BME280;62428;51.412;5.432;2022-10-16T11:50:31;101440.78;;;15.86;74.54
74075;BME280;62428;51.412;5.432;2022-10-16T11:55:40;101448.84;;;16.18;72.53
74075;BME280;62428;51.412;5.432;2022-10-16T12:00:47;101444.41;;;16.30;71.20
74075;BME280;62428;51.412;5.432;2022-10-16T12:03:21;101449.38;;;16.28;71.53
74075;BME280;62428;51.412;5.432;2022-10-16T12:06:20;101447.41;;;16.20;72.71
74075;BME280;62428;51.412;5.432;2022-10-16T12:08:40;101437.66;;;16.10;71.32
74075;BME280;62428;51.412;5.432;2022-10-16T12:16:54;101453.28;;;16.13;72.37
74075;BME280;62428;51.412;5.432;2022-10-16T12:19:21;101455.50;;;16.11;72.49
74075;BME280;62428;51.412;5.432;2022-10-16T12:21:56;101455.84;;;16.10;73.13
74075;BME280;62428;51.412;5.432;2022-10-16T12:24:33;101460.75;;;16.08;72.11
74075;BME280;62428;51.412;5.432;2022-10-16T12:26:59;101454.09;;;16.14;73.25
74075;BME280;62428;51.412;5.432;2022-10-16T12:31:56;101439.81;;;16.40;68.97
74075;BME280;62428;51.412;5.432;2022-10-16T12:36:56;101452.28;;;16.58;70.97
74075;BME280;62428;51.412;5.432;2022-10-16T12:39:32;101442.56;;;16.66;71.00
74075;BME280;62428;51.412;5.432;2022-10-16T12:42:02;101443.50;;;16.70;69.53
74075;BME280;62428;51.412;5.432;2022-10-16T12:44:32;101442.56;;;16.66;68.29
74075;BME280;62428;51.412;5.432;2022-10-16T12:46:58;101451.50;;;16.58;67.03
74075;BME280;62428;51.412;5.432;2022-10-16T12:49:51;101445.44;;;16.52;70.37
74075;BME280;62428;51.412;5.432;2022-10-16T12:52:38;101447.31;;;16.51;70.18
74075;BME280;62428;51.412;5.432;2022-10-16T12:55:05;101441.59;;;16.53;70.38
74075;BME280;62428;51.412;5.432;2022-10-16T12:57:52;101425.31;;;16.53;70.53
74075;BME280;62428;51.412;5.432;2022-10-16T13:08:57;101432.31;;;16.45;70.08
74075;BME280;62428;51.412;5.432;2022-10-16T13:11:43;101436.97;;;16.45;71.82
74075;BME280;62428;51.412;5.432;2022-10-16T13:22:45;101448.78;;;16.58;68.74
74075;BME280;62428;51.412;5.432;2022-10-16T13:28:03;101458.66;;;16.53;71.41
74075;BME280;62428;51.412;5.432;2022-10-16T13:30:42;101462.97;;;16.55;71.73
74075;BME280;62428;51.412;5.432;2022-10-16T13:33:19;101463.13;;;16.58;71.78
74075;BME280;62428;51.412;5.432;2022-10-16T13:35:51;101469.34;;;16.59;72.95
74075;BME280;62428;51.412;5.432;2022-10-16T13:38:22;101461.53;;;16.57;71.33
74075;BME280;62428;51.412;5.432;2022-10-16T13:40:55;101474.78;;;16.59;71.95
74075;BME280;62428;51.412;5.432;2022-10-16T13:43:43;101478.31;;;16.59;72.45
74075;BME280;62428;51.412;5.432;2022-10-16T13:46:21;101474.78;;;16.59;71.31
74075;BME280;62428;51.412;5.432;2022-10-16T13:49:11;101468.88;;;16.57;71.79
74075;BME280;62428;51.412;5.432;2022-10-16T13:51:37;101479.56;;;16.53;70.14
74075;BME280;62428;51.412;5.432;2022-10-16T13:54:02;101468.22;;;16.51;69.56
74075;BME280;62428;51.412;5.432;2022-10-16T13:56:30;101474.28;;;16.48;70.29
74075;BME280;62428;51.412;5.432;2022-10-16T13:59:04;101481.13;;;16.45;71.86
74075;BME280;62428;51.412;5.432;2022-10-16T14:01:42;101470.44;;;16.40;71.74
74075;BME280;62428;51.412;5.432;2022-10-16T14:04:11;101472.34;;;16.40;71.62
74075;BME280;62428;51.412;5.432;2022-10-16T14:06:43;101480.31;;;16.36;71.91
74075;BME280;62428;51.412;5.432;2022-10-16T14:11:56;101479.66;;;16.30;72.33
74075;BME280;62428;51.412;5.432;2022-10-16T14:14:22;101493.53;;;16.29;71.77
74075;BME280;62428;51.412;5.432;2022-10-16T14:16:48;101484.91;;;16.27;71.45
74075;BME280;62428;51.412;5.432;2022-10-16T14:19:28;101476.31;;;16.25;72.41
74075;BME280;62428;51.412;5.432;2022-10-16T14:21:55;101468.47;;;16.23;72.78
74075;BME280;62428;51.412;5.432;2022-10-16T14:24:32;101461.75;;;16.21;73.44
74075;BME280;62428;51.412;5.432;2022-10-16T14:26:59;101463.38;;;16.22;72.40
74075;BME280;62428;51.412;5.432;2022-10-16T14:29:27;101467.19;;;16.21;73.12
74075;BME280;62428;51.412;5.432;2022-10-16T14:32:01;101470.72;;;16.21;73.83
74075;BME280;62428;51.412;5.432;2022-10-16T14:34:34;101459.88;;;16.21;73.48
74075;BME280;62428;51.412;5.432;2022-10-16T14:37:07;101455.72;;;16.24;73.62